Archival Weather

Chicago O'Hare International

Chicago, Illinois (KORD)

Report from: Friday, December 9, 2022 4:23 PM CST
Current time: Friday, June 21, 2024 6:35 PM CDT

Current weather – Weather history – Daily summaries
Weather forecast

Present weatherLight drizzle, mist
Temperature2.8°C (37.0°F)
Wind chill-1.7°C (28.9°F)
Dew point1.1°C (34.0°F)
Winds 11 kts (5.7 m/s, 12.7 mph) East (80°)
Visibility2 mi. (3.2 km)
Clouds Ceiling: Broken clouds 500 ft. (152 m)
Overcast 1,000 ft. (305 m)
Altimeter30.16 in.Hg (1021 mB)
PrecipitiationTrace
Relative humidity89 %
Density altitude-1,658 ft. (-505 m)
Remarks System requires maintenance
Automated weather observing station with precipitation discriminator
Flight conditions Instrument Meteorological Conditions
Raw dataKORD 092223Z 08011KT 2SM -DZ BR BKN005 OVC010 03/01 A3016 RMK AO2 P0000 T00280011 $
An error has occurred. This application may no longer respond until reloaded. Reload 🗙